This demonstration page uses our WeatherBlox Daily Observations layout. Learn more.

36.17497, -115.13722

Hourly Observations for March 1, 2018

Temp ( °F °C ) Dew Point ( °F °C ) Humidity (%) Winds ( mph kmh ) Pressure ( in mb ) Visibility ( mi km ) Precip ( " mm )
12:53 am 00:53 Clear 48 8.9 28 -2.2 46 46 VRB 5 7 30.14 1021 10 16.0934 0 0
1:53 am 01:53 Clear 48 8.9 27 -2.8 44 44 N 3 6 30.12 1020 10 16.0934 0 0
2:53 am 02:53 Clear 49 9.4 25 -3.9 39 39 SE 10 17 30.1 1019 10 16.0934 0 0
3:53 am 03:53 Clear 49 9.4 25 -3.9 39 39 SE 10 17 30.1 1019 10 16.0934 0 0
4:53 am 04:53 Clear 46 7.8 26 -3.3 46 46 ESE 9 15 30.11 1020 10 16.0934 0 0
5:53 am 05:53 Clear 46 7.8 27 -2.8 47 47 ESE 10 17 30.13 1020 10 16.0934 0 0
6:53 am 06:53 Mostly Cloudy 47 8.3 27 -2.8 46 46 ESE 13 20 30.14 1021 10 16.0934 0 0
7:53 am 07:53 Sunny 49 9.4 27 -2.8 43 43 E 10 17 30.14 1021 10 16.0934 0 0
8:53 am 08:53 Partly Cloudy 54 12.2 26 -3.3 34 34 S 17 28 30.11 1020 10 16.0934 0 0
9:53 am 09:53 Sunny 54 12.2 28 -2.2 37 37 SE 18 30 30.12 1020 10 16.0934 0 0
10:38 am 10:38 Sunny 57 13.9 24 -4.4 28 28 SSW 17 28 30.06 1018 10 16.0934 0 0
10:53 am 10:53 Sunny 58 14.4 23 -5 26 26 SSW 15 24 30.1 1019 10 16.0934 0 0
11:53 am 11:53 Sunny 61 16.1 24 -4.4 24 24 SSW 16 26 30.06 1018 10 16.0934 0 0
12:09 pm 12:09 Sunny 62 16.7 20 -6.7 20 20 SW 13 20 30 1016 10 16.0934 0 0
12:53 pm 12:53 Sunny 63 17.2 20 -6.7 19 19 SW 16 26 30.04 1017 10 16.0934 0 0
1:53 pm 13:53 Sunny 63 17.2 19 -7.2 18 18 S 20 31 30.01 1016 10 16.0934 0 0
2:53 pm 14:53 Partly Cloudy 64 17.8 18 -7.8 17 17 SSW 21 33 30 1016 10 16.0934 0 0
3:53 pm 15:53 Mostly Cloudy 63 17.2 17 -8.3 17 17 SSW 16 26 29.98 1015 10 16.0934 0 0
4:53 pm 16:53 Mostly Sunny 62 16.7 17 -8.3 17 17 SSW 15 24 29.97 1015 10 16.0934 0 0
5:53 pm 17:53 Mostly Cloudy 60 15.6 18 -7.8 19 19 S 13 20 29.99 1016 10 16.0934 0 0
6:53 pm 18:53 Clear 57 13.9 21 -6.1 25 25 SSE 17 28 30 1016 10 16.0934 0 0
7:53 pm 19:53 Clear 56 13.3 20 -6.7 24 24 S 18 30 30 1016 10 16.0934 0 0
8:53 pm 20:53 Clear 55 12.8 20 -6.7 25 25 SSE 17 28 30 1016 10 16.0934 0 0
9:53 pm 21:53 Clear 54 12.2 20 -6.7 26 26 SSE 12 19 30 1016 10 16.0934 0 0
10:53 pm 22:53 Clear 54 12.2 20 -6.7 26 26 S 14 22 29.99 1016 10 16.0934 0 0
11:53 pm 23:53 Clear 53 11.7 20 -6.7 27 27 SE 9 15 29.98 1015 10 16.0934 0 0

Powered by AerisWeather